Hauptseite
METAR-TAF:

METAR-TAF

Flughäfen :

La Chaux-de-Fonds, Schweiz

Flugplatz Les Eplatures

Breite: 47-05-03N, Länge: 006-47-37E, Höhe: 1027 m

Beobachtung

Neuester Wetterbericht von vor 29 Minuten, um 06:20 UTC
Wind 3 kt aus West/Südwest, variierte zwischen Südwest und West
Temperatur 11°C
Luftfeuchtigkeit 66%
Luftdruck 1017 hPa
Sichtweite 10 km oder mehr
keine Wolken unter 1500 m und keine Kumulonimbus oder Gewitterwolken

METAR: LSGC 200620Z 25003KT 220V280 CAVOK 11/05 Q1017

Zeit: 08:49 (06:49 UTC)

Prognose

Neuester Wetterbericht von vor 1 Stunde und 24 Minuten, um 05:25 UTC
Gültige Prognose vom 20 um 06 UTC bis 20 um 15 UTC
Wind 3 kt aus unterschiedlichen Richtungen
Sichtweite 10 km oder mehr
keine Wolken unter 1500 m und keine Kumulonimbus oder Gewitterwolken
Übergehend zu
vom 20 um 07 UTC bis 20 um 10 UTC
Wind 10 kt aus Südwest

TAF: LSGC 200525Z 2006/2015 VRB03KT CAVOK BECMG 2007/2010 23010KT

Wetterbeobachtungen und Prognosen von mehr als 4000 Flughäfen (METAR und TAF Bericht).

Die verfügbaren Stationen werden durch gelbe und rote Markierungen auf der Karte dargestellt.

Führen Sie die Maus auf sie, um den Namen der Station zu sehen.

Darauf klicken, um die Beobachtung von Wetterbeobachtungen und Prognosen zu sehen.

Um die Karte zu ändern : klicken Sie auf den grünen Tasten mit einem schwarzen Kreuz Zum Vergrößern, auf den grünen Button mit einem Gedankenstrich zu verkleinern, oder auf die grünen Pfeile für benachbarte Karten.


METAR-TAF: